createdAt,value
2022-12-06T00:01:18.848Z,1.70
2022-12-06T00:03:47.359Z,1.50
2022-12-06T00:06:17.688Z,1.40
2022-12-06T00:08:45.817Z,1.13
2022-12-06T00:11:20.175Z,1.00
2022-12-06T00:13:47.716Z,1.38
2022-12-06T00:16:17.197Z,1.35
2022-12-06T00:18:45.489Z,1.50
2022-12-06T00:21:21.510Z,1.30
2022-12-06T00:23:53.257Z,1.40
2022-12-06T00:26:20.830Z,1.30
2022-12-06T00:28:48.001Z,1.30
2022-12-06T00:31:19.820Z,1.40
2022-12-06T00:33:49.286Z,1.48
2022-12-06T00:36:21.776Z,1.42
2022-12-06T00:38:50.450Z,1.40
2022-12-06T00:41:19.492Z,1.50
2022-12-06T00:43:46.938Z,1.60
2022-12-06T00:46:17.499Z,1.40
2022-12-06T00:48:45.527Z,1.40
2022-12-06T00:51:13.094Z,1.38
2022-12-06T00:53:40.690Z,1.40
2022-12-06T00:56:08.185Z,1.58
2022-12-06T00:58:35.236Z,1.60
2022-12-06T01:01:20.798Z,1.10
2022-12-06T01:03:52.551Z,1.30
2022-12-06T01:06:21.444Z,1.40
2022-12-06T01:08:48.650Z,1.40
2022-12-06T01:11:16.711Z,1.60
2022-12-06T01:13:44.475Z,1.40
2022-12-06T01:16:17.586Z,1.17
2022-12-06T01:18:45.490Z,1.50
2022-12-06T01:21:17.594Z,1.35
2022-12-06T01:23:45.349Z,1.10
2022-12-06T01:26:16.396Z,1.38
2022-12-06T01:28:45.969Z,1.50
2022-12-06T01:31:13.754Z,1.13
2022-12-06T01:33:40.938Z,1.48
2022-12-06T01:36:08.338Z,1.40
2022-12-06T01:38:35.545Z,1.40
2022-12-06T01:41:02.634Z,1.60
2022-12-06T01:43:35.762Z,1.50
2022-12-06T01:46:32.170Z,1.60
2022-12-06T01:49:06.754Z,1.40
2022-12-06T01:54:02.438Z,1.65
2022-12-06T01:56:29.639Z,1.60
2022-12-06T01:59:06.543Z,1.40
2022-12-06T02:01:34.127Z,1.40
2022-12-06T02:04:01.691Z,1.40
2022-12-06T02:06:30.754Z,1.40
2022-12-06T02:08:59.850Z,1.48
2022-12-06T02:11:30.767Z,1.35
2022-12-06T02:14:06.385Z,1.48
2022-12-06T02:16:52.821Z,1.40
2022-12-06T02:20:00.648Z,1.50
2022-12-06T02:22:33.294Z,1.60
2022-12-06T02:25:11.358Z,1.40
2022-12-06T02:27:51.377Z,1.42
2022-12-06T02:30:39.525Z,1.17
2022-12-06T02:33:49.909Z,1.38
2022-12-06T02:36:44.303Z,1.45
2022-12-06T02:39:34.935Z,1.50
2022-12-06T02:42:33.858Z,1.60
2022-12-06T02:45:05.177Z,1.50
2022-12-06T02:47:34.648Z,1.52
2022-12-06T02:50:04.256Z,1.40
2022-12-06T02:52:32.659Z,1.10
2022-12-06T02:55:01.348Z,1.40
2022-12-06T02:57:44.931Z,1.48
2022-12-06T03:00:42.621Z,1.40
2022-12-06T03:03:28.082Z,1.50
2022-12-06T03:06:04.059Z,1.35
2022-12-06T03:09:02.634Z,1.40
2022-12-06T03:11:50.315Z,1.10
2022-12-06T03:14:23.550Z,1.30
2022-12-06T03:17:02.907Z,1.50
2022-12-06T03:19:31.152Z,1.42
2022-12-06T03:22:03.532Z,1.40
2022-12-06T03:24:33.935Z,1.60
2022-12-06T03:27:05.120Z,1.48
2022-12-06T03:29:38.328Z,1.50
2022-12-06T03:32:07.307Z,1.40
2022-12-06T03:34:40.341Z,1.50
2022-12-06T03:37:10.420Z,1.42
2022-12-06T03:39:50.390Z,1.48
2022-12-06T03:42:18.612Z,1.33
2022-12-06T03:44:47.460Z,1.48
2022-12-06T03:47:18.646Z,1.23
2022-12-06T03:49:48.877Z,1.50
2022-12-06T03:52:15.752Z,1.58
2022-12-06T03:54:43.138Z,1.40
2022-12-06T03:57:10.418Z,1.48
2022-12-06T03:59:37.430Z,1.50
2022-12-06T04:02:04.379Z,1.70
2022-12-06T04:04:31.480Z,1.60
2022-12-06T04:06:58.544Z,1.02
2022-12-06T04:09:44.042Z,1.70
2022-12-06T04:12:34.173Z,1.45
2022-12-06T04:15:01.280Z,1.42
2022-12-06T04:17:46.544Z,1.38
2022-12-06T04:20:13.824Z,1.17
2022-12-06T04:22:59.802Z,1.30
2022-12-06T04:25:26.951Z,1.30
2022-12-06T04:28:12.362Z,1.60
2022-12-06T04:30:58.429Z,1.33
2022-12-06T04:33:44.150Z,1.25
2022-12-06T04:36:29.760Z,1.33
2022-12-06T04:38:56.771Z,1.52
2022-12-06T04:41:42.687Z,1.10
2022-12-06T04:44:09.823Z,1.40
2022-12-06T04:46:36.890Z,1.33
2022-12-06T04:49:04.215Z,1.50
2022-12-06T04:51:31.229Z,1.60
2022-12-06T04:53:58.294Z,1.60
2022-12-06T04:56:25.489Z,1.50
2022-12-06T04:58:52.570Z,1.50
2022-12-06T05:01:19.609Z,1.52
2022-12-06T05:03:46.912Z,1.50
2022-12-06T05:06:14.267Z,1.40
2022-12-06T05:08:41.426Z,1.40
2022-12-06T05:11:08.404Z,1.42
2022-12-06T05:13:36.122Z,1.55
2022-12-06T05:16:05.463Z,1.40
2022-12-06T05:18:33.929Z,1.50
2022-12-06T05:21:09.134Z,1.48
2022-12-06T05:23:36.576Z,1.23
2022-12-06T05:26:06.136Z,1.42
2022-12-06T05:28:33.797Z,1.58
2022-12-06T05:31:01.089Z,1.42
2022-12-06T05:33:28.846Z,1.35
2022-12-06T05:35:56.756Z,1.15
2022-12-06T05:38:24.222Z,1.58
2022-12-06T05:40:51.831Z,1.60
2022-12-06T05:43:18.835Z,1.55
2022-12-06T05:45:45.945Z,1.50
2022-12-06T05:48:12.958Z,1.40
2022-12-06T05:50:40.429Z,1.30
2022-12-06T05:53:07.390Z,1.25
2022-12-06T05:55:34.385Z,1.42
2022-12-06T05:58:01.252Z,1.60
2022-12-06T06:00:28.374Z,1.58
2022-12-06T06:02:55.483Z,1.58
2022-12-06T06:05:22.589Z,1.50
2022-12-06T06:07:49.629Z,1.50
2022-12-06T06:10:17.929Z,1.58
2022-12-06T06:12:45.341Z,1.45
2022-12-06T06:15:13.252Z,1.40
2022-12-06T06:17:40.714Z,1.50
2022-12-06T06:20:08.713Z,1.70
2022-12-06T06:22:36.881Z,1.67
2022-12-06T06:25:05.323Z,1.50
2022-12-06T06:27:39.860Z,1.70
2022-12-06T06:30:10.607Z,1.60
2022-12-06T06:32:39.165Z,1.45
2022-12-06T06:35:07.805Z,1.40
2022-12-06T06:37:35.007Z,1.40
2022-12-06T06:40:03.315Z,1.20
2022-12-06T06:42:30.643Z,1.40
2022-12-06T06:44:57.640Z,1.25
2022-12-06T06:47:24.685Z,1.60
2022-12-06T06:49:51.955Z,1.50
2022-12-06T06:52:21.158Z,1.10
2022-12-06T06:54:48.791Z,1.42
2022-12-06T06:57:17.896Z,1.42
2022-12-06T06:59:45.902Z,1.33
2022-12-06T07:02:14.547Z,1.40
2022-12-06T07:04:42.490Z,1.50
2022-12-06T07:07:09.400Z,1.70
2022-12-06T07:09:36.393Z,1.70
2022-12-06T07:12:03.870Z,1.50
2022-12-06T07:14:30.858Z,1.50
2022-12-06T07:16:57.889Z,1.42
2022-12-06T07:19:24.863Z,1.60
2022-12-06T07:21:52.408Z,1.50
2022-12-06T07:24:19.410Z,1.50
2022-12-06T07:26:46.363Z,1.50
2022-12-06T07:29:13.262Z,1.40
2022-12-06T07:31:41.139Z,1.50
2022-12-06T07:34:09.746Z,1.70
2022-12-06T07:36:37.899Z,1.80
2022-12-06T07:39:11.594Z,1.70
2022-12-06T07:42:01.663Z,1.33
2022-12-06T07:45:01.943Z,1.58
2022-12-06T07:47:39.361Z,1.60
2022-12-06T07:50:16.003Z,1.60
2022-12-06T07:52:45.874Z,1.55
2022-12-06T07:55:13.365Z,1.60
2022-12-06T07:57:43.690Z,1.60
2022-12-06T08:00:14.621Z,1.65
2022-12-06T08:02:42.362Z,1.50
2022-12-06T08:05:09.762Z,1.50
2022-12-06T08:07:36.987Z,1.55
2022-12-06T08:10:05.291Z,1.60
2022-12-06T08:12:32.673Z,1.60
2022-12-06T08:15:00.290Z,1.50
2022-12-06T08:17:29.326Z,1.40
2022-12-06T08:19:56.449Z,1.40
2022-12-06T08:22:23.946Z,1.40
2022-12-06T08:24:51.337Z,1.40
2022-12-06T08:27:18.346Z,1.40
2022-12-06T08:29:45.754Z,1.10
2022-12-06T08:32:16.025Z,1.20
2022-12-06T08:34:47.395Z,1.02
2022-12-06T08:37:14.748Z,1.35
2022-12-06T08:39:41.666Z,1.50
2022-12-06T08:42:08.648Z,1.40
2022-12-06T08:44:40.638Z,1.30
2022-12-06T08:47:07.841Z,1.30
2022-12-06T08:49:34.863Z,1.40
2022-12-06T08:52:02.115Z,1.30
2022-12-06T08:54:29.549Z,1.10
2022-12-06T08:56:56.539Z,0.90
2022-12-06T08:59:24.145Z,1.50
2022-12-06T09:01:51.311Z,1.30
2022-12-06T09:04:18.385Z,1.10
2022-12-06T09:06:46.405Z,1.23
2022-12-06T09:09:15.490Z,1.20
2022-12-06T09:11:43.086Z,1.10
2022-12-06T09:14:19.612Z,1.25
2022-12-06T09:16:49.432Z,1.25
2022-12-06T09:19:16.480Z,1.10
2022-12-06T09:21:44.434Z,1.08
2022-12-06T09:24:16.518Z,1.08
2022-12-06T09:26:44.020Z,1.13
2022-12-06T09:29:14.262Z,1.00
2022-12-06T09:31:41.940Z,1.35
2022-12-06T09:34:10.171Z,1.10
2022-12-06T09:37:10.672Z,1.05
2022-12-06T09:39:41.598Z,0.95
2022-12-06T09:42:36.603Z,1.20
2022-12-06T09:45:32.625Z,1.00
2022-12-06T09:48:03.958Z,1.25
2022-12-06T09:50:58.704Z,1.08
2022-12-06T09:53:44.273Z,1.10
2022-12-06T09:56:25.121Z,0.90
2022-12-06T09:59:24.925Z,1.17
2022-12-06T10:02:17.901Z,0.90
2022-12-06T10:05:04.474Z,1.10
2022-12-06T10:07:43.988Z,1.10
2022-12-06T10:10:24.508Z,1.00
2022-12-06T10:12:54.716Z,0.93
2022-12-06T10:15:54.643Z,1.00
2022-12-06T10:18:41.721Z,1.30
2022-12-06T10:21:36.132Z,1.30
2022-12-06T10:24:18.662Z,0.90
2022-12-06T10:26:50.924Z,0.82
2022-12-06T10:29:44.545Z,1.17
2022-12-06T10:32:42.512Z,1.30
2022-12-06T10:35:19.095Z,1.30
2022-12-06T10:38:04.869Z,0.95
2022-12-06T10:40:51.885Z,0.95
2022-12-06T10:43:40.478Z,1.00
2022-12-06T10:46:35.659Z,1.10
2022-12-06T10:49:11.278Z,1.10
2022-12-06T10:51:53.843Z,1.00
2022-12-06T10:54:32.451Z,1.30
2022-12-06T10:57:03.685Z,1.13
2022-12-06T10:59:40.412Z,1.00
2022-12-06T11:02:23.617Z,1.10
2022-12-06T11:04:55.313Z,0.85
2022-12-06T11:07:29.891Z,1.02
2022-12-06T11:09:57.832Z,0.90
2022-12-06T11:12:36.708Z,0.85
2022-12-06T11:15:17.813Z,0.98
2022-12-06T11:18:02.891Z,0.95
2022-12-06T11:20:33.870Z,0.90
2022-12-06T11:23:25.540Z,0.70
2022-12-06T11:26:03.969Z,0.70
2022-12-06T11:28:44.201Z,0.70
2022-12-06T11:31:17.302Z,0.90
2022-12-06T11:33:46.436Z,0.75
2022-12-06T11:36:13.498Z,0.90
2022-12-06T11:38:41.924Z,0.98
2022-12-06T11:41:12.378Z,1.05
2022-12-06T11:43:39.911Z,1.05
2022-12-06T11:46:08.619Z,0.98
2022-12-06T11:48:37.669Z,1.08
2022-12-06T11:51:22.625Z,0.98
2022-12-06T11:53:58.745Z,1.40
2022-12-06T11:56:28.838Z,1.13
2022-12-06T12:02:01.180Z,0.80
2022-12-06T12:04:41.126Z,0.93
2022-12-06T12:07:08.760Z,1.10
2022-12-06T12:09:45.157Z,1.02
2022-12-06T12:12:18.919Z,1.00
2022-12-06T12:14:51.121Z,1.08
2022-12-06T12:17:21.675Z,1.00
2022-12-06T12:20:08.535Z,0.80
2022-12-06T12:22:41.794Z,0.80
2022-12-06T12:25:42.450Z,1.02
2022-12-06T12:28:34.733Z,0.65
2022-12-06T12:31:26.574Z,0.60
2022-12-06T12:34:20.793Z,0.80
2022-12-06T12:36:53.182Z,0.70
2022-12-06T12:39:40.851Z,0.90
2022-12-06T12:42:30.418Z,0.77
2022-12-06T12:45:00.508Z,0.90
2022-12-06T12:47:28.023Z,0.75
2022-12-06T12:50:02.375Z,0.70
2022-12-06T12:55:14.473Z,0.80
2022-12-06T12:57:47.542Z,0.90
2022-12-06T13:00:20.162Z,0.93
2022-12-06T13:03:00.772Z,0.90
2022-12-06T13:05:33.983Z,1.00
2022-12-06T13:08:11.831Z,0.70
2022-12-06T13:10:40.000Z,0.80
2022-12-06T13:13:15.422Z,0.85
2022-12-06T13:15:53.867Z,0.80
2022-12-06T13:18:24.968Z,0.85
2022-12-06T13:20:57.622Z,0.80
2022-12-06T13:23:27.979Z,0.90
2022-12-06T13:26:12.945Z,0.77
2022-12-06T13:28:45.087Z,0.90
2022-12-06T13:31:18.885Z,0.80
2022-12-06T13:33:49.850Z,0.90
2022-12-06T13:36:17.697Z,1.00
2022-12-06T13:38:44.847Z,0.82
2022-12-06T13:41:11.847Z,1.15
2022-12-06T13:43:40.175Z,0.98
2022-12-06T13:46:07.602Z,1.00
2022-12-06T13:48:51.774Z,0.90
2022-12-06T13:51:38.670Z,0.93
2022-12-06T13:54:06.083Z,0.90
2022-12-06T13:56:33.005Z,0.90
2022-12-06T13:59:01.366Z,0.80
2022-12-06T14:02:01.108Z,0.90
2022-12-06T14:07:04.367Z,1.00
2022-12-06T14:09:47.695Z,0.95
2022-12-06T14:12:24.490Z,0.93
2022-12-06T14:15:03.064Z,0.88
2022-12-06T14:20:32.247Z,1.00
2022-12-06T14:22:59.937Z,1.08
2022-12-06T14:25:29.747Z,1.00
2022-12-06T14:28:10.880Z,0.80
2022-12-06T14:30:39.429Z,0.70
2022-12-06T14:33:26.822Z,0.90
2022-12-06T14:35:55.583Z,0.90
2022-12-06T14:38:24.716Z,1.30
2022-12-06T14:41:11.211Z,1.08
2022-12-06T14:43:39.818Z,0.80
2022-12-06T14:46:11.977Z,0.85
2022-12-06T14:48:57.906Z,0.80
2022-12-06T14:51:36.943Z,0.75
2022-12-06T14:54:47.816Z,1.00
2022-12-06T14:57:30.247Z,0.90
2022-12-06T15:00:16.119Z,1.02
2022-12-06T15:03:08.018Z,0.90
2022-12-06T15:05:38.183Z,1.10
2022-12-06T15:08:27.050Z,0.90
2022-12-06T15:11:38.816Z,0.85
2022-12-06T15:14:26.762Z,1.00
2022-12-06T15:17:09.860Z,0.90
2022-12-06T15:19:47.908Z,0.77
2022-12-06T15:22:30.400Z,0.95
2022-12-06T15:25:00.265Z,0.90
2022-12-06T15:27:34.326Z,1.10
2022-12-06T15:30:04.648Z,1.00
2022-12-06T15:32:32.201Z,1.00
2022-12-06T15:34:59.341Z,0.98
2022-12-06T15:37:47.315Z,1.00
2022-12-06T15:40:15.438Z,0.77
2022-12-06T15:42:44.012Z,1.10
2022-12-06T15:45:15.782Z,0.98
2022-12-06T15:47:42.877Z,1.00
2022-12-06T15:50:15.123Z,1.00
2022-12-06T15:52:42.561Z,1.10
2022-12-06T15:55:25.868Z,1.00
2022-12-06T15:57:52.895Z,1.10
2022-12-06T16:00:20.157Z,1.10
2022-12-06T16:02:47.263Z,1.02
2022-12-06T16:05:15.769Z,0.93
2022-12-06T16:07:43.271Z,1.00
2022-12-06T16:10:10.741Z,1.10
2022-12-06T16:12:56.820Z,1.05
2022-12-06T16:15:24.120Z,1.00
2022-12-06T16:17:51.368Z,1.40
2022-12-06T16:20:44.352Z,0.90
2022-12-06T16:24:10.899Z,1.10
2022-12-06T16:26:23.561Z,0.85
2022-12-06T16:28:50.769Z,1.25
2022-12-06T16:31:17.784Z,0.85
2022-12-06T16:33:50.486Z,0.80
2022-12-06T16:36:23.235Z,1.08
2022-12-06T16:38:55.607Z,1.00
2022-12-06T16:41:29.202Z,1.10
2022-12-06T16:43:57.391Z,1.05
2022-12-06T16:46:28.552Z,1.00
2022-12-06T16:49:44.746Z,0.98
2022-12-06T16:52:02.045Z,1.00
2022-12-06T16:54:29.139Z,1.25
2022-12-06T16:56:58.885Z,0.80
2022-12-06T16:59:26.013Z,0.82
2022-12-06T17:01:55.419Z,1.10
2022-12-06T17:04:25.377Z,0.90
2022-12-06T17:06:52.738Z,0.80
2022-12-06T17:09:22.182Z,0.95
2022-12-06T17:12:07.180Z,1.30
2022-12-06T17:14:36.234Z,1.13
2022-12-06T17:17:05.084Z,1.00
2022-12-06T17:19:33.400Z,1.15
2022-12-06T17:22:06.291Z,0.90
2022-12-06T17:24:34.992Z,1.13
2022-12-06T17:27:05.403Z,1.10
2022-12-06T17:29:38.580Z,1.30
2022-12-06T17:32:09.188Z,1.10
2022-12-06T17:34:36.507Z,1.07
2022-12-06T17:37:04.412Z,1.10
2022-12-06T17:39:32.375Z,1.17
2022-12-06T17:42:19.895Z,1.10
2022-12-06T17:44:49.586Z,0.95
2022-12-06T17:47:16.584Z,1.10
2022-12-06T17:49:43.618Z,0.93
2022-12-06T17:52:18.122Z,1.00
2022-12-06T17:54:45.219Z,1.33
2022-12-06T17:57:16.278Z,1.10
2022-12-06T17:59:46.327Z,1.33
2022-12-06T18:02:19.649Z,1.15
2022-12-06T18:04:47.936Z,1.10
2022-12-06T18:07:17.279Z,1.40
2022-12-06T18:09:44.883Z,1.10
2022-12-06T18:12:13.436Z,1.40
2022-12-06T18:14:40.630Z,1.10
2022-12-06T18:17:07.980Z,1.10
2022-12-06T18:19:35.582Z,1.40
2022-12-06T18:22:04.585Z,1.25
2022-12-06T18:24:35.569Z,1.23
2022-12-06T18:27:04.994Z,1.40
2022-12-06T18:29:32.584Z,1.40
2022-12-06T18:32:02.458Z,1.27
2022-12-06T18:34:29.915Z,1.33
2022-12-06T18:36:57.738Z,0.98
2022-12-06T18:39:25.131Z,1.30
2022-12-06T18:41:53.740Z,1.33
2022-12-06T18:44:23.344Z,1.40
2022-12-06T18:46:50.745Z,1.40
2022-12-06T18:49:18.165Z,1.30
2022-12-06T18:51:45.150Z,1.40
2022-12-06T18:54:13.998Z,1.10
2022-12-06T18:56:41.804Z,1.15
2022-12-06T18:59:10.402Z,1.10
2022-12-06T19:01:39.449Z,1.00
2022-12-06T19:04:09.380Z,1.10
2022-12-06T19:06:38.024Z,1.00
2022-12-06T19:09:07.773Z,1.00
2022-12-06T19:11:43.245Z,1.30
2022-12-06T19:14:10.640Z,1.40
2022-12-06T19:16:40.298Z,1.10
2022-12-06T19:19:16.674Z,1.40
2022-12-06T19:21:45.728Z,1.40
2022-12-06T19:24:16.350Z,1.45
2022-12-06T19:26:46.028Z,1.00
2022-12-06T19:29:14.018Z,1.50
2022-12-06T19:31:41.489Z,1.30
2022-12-06T19:34:20.219Z,1.50
2022-12-06T19:36:49.168Z,1.45
2022-12-06T19:39:18.151Z,1.50
2022-12-06T19:42:04.290Z,1.40
2022-12-06T19:44:31.837Z,1.10
2022-12-06T19:46:59.089Z,1.27
2022-12-06T19:49:27.661Z,1.40
2022-12-06T19:51:54.986Z,1.50
2022-12-06T19:54:24.825Z,1.30
2022-12-06T19:56:53.626Z,1.10
2022-12-06T19:59:21.832Z,1.40
2022-12-06T20:01:51.265Z,1.40
2022-12-06T20:04:24.314Z,1.40
2022-12-06T20:06:53.015Z,1.38
2022-12-06T20:09:21.850Z,1.30
2022-12-06T20:12:04.229Z,1.40
2022-12-06T20:14:40.355Z,1.17
2022-12-06T20:17:25.659Z,1.40
2022-12-06T20:22:23.015Z,1.33
2022-12-06T20:24:50.403Z,1.10
2022-12-06T20:27:17.509Z,1.23
2022-12-06T20:29:44.512Z,1.30
2022-12-06T20:32:17.496Z,1.13
2022-12-06T20:34:59.315Z,1.30
2022-12-06T20:37:26.453Z,1.40
2022-12-06T20:39:54.699Z,1.48
2022-12-06T20:42:31.576Z,1.30
2022-12-06T20:44:58.704Z,1.40
2022-12-06T20:47:25.838Z,1.40
2022-12-06T20:49:53.953Z,1.10
2022-12-06T20:52:23.682Z,1.35
2022-12-06T20:54:51.737Z,1.30
2022-12-06T20:57:18.796Z,1.40
2022-12-06T20:59:45.885Z,1.50
2022-12-06T21:02:13.087Z,1.40
2022-12-06T21:04:40.612Z,1.30
2022-12-06T21:07:07.762Z,1.55
2022-12-06T21:09:34.747Z,1.42
2022-12-06T21:12:01.679Z,1.38
2022-12-06T21:14:29.153Z,1.50
2022-12-06T21:16:56.082Z,1.40
2022-12-06T21:19:23.698Z,1.50
2022-12-06T21:21:54.133Z,1.15
2022-12-06T21:24:22.035Z,1.50
2022-12-06T21:26:49.076Z,1.30
2022-12-06T21:29:28.128Z,1.40
2022-12-06T21:31:57.607Z,1.30
2022-12-06T21:34:24.622Z,1.30
2022-12-06T21:36:51.531Z,1.50
2022-12-06T21:39:19.377Z,1.50
2022-12-06T21:41:46.433Z,1.60
2022-12-06T21:44:13.538Z,1.55
2022-12-06T21:46:40.786Z,1.60
2022-12-06T21:49:07.985Z,1.30
2022-12-06T21:51:35.343Z,1.65
2022-12-06T21:54:02.499Z,1.35
2022-12-06T21:56:30.817Z,1.40
2022-12-06T21:59:00.176Z,1.40
2022-12-06T22:01:28.983Z,1.40
2022-12-06T22:03:58.640Z,1.48
2022-12-06T22:06:25.921Z,1.42
2022-12-06T22:09:01.601Z,1.40
2022-12-06T22:11:29.979Z,1.30
2022-12-06T22:13:58.723Z,1.40
2022-12-06T22:16:26.552Z,1.45
2022-12-06T22:18:55.286Z,1.50
2022-12-06T22:21:27.514Z,1.45
2022-12-06T22:23:58.047Z,1.45
2022-12-06T22:26:28.408Z,1.40
2022-12-06T22:28:56.057Z,1.40
2022-12-06T22:31:31.396Z,1.50
2022-12-06T22:33:59.115Z,1.30
2022-12-06T22:36:27.737Z,1.33
2022-12-06T22:38:57.447Z,1.50
2022-12-06T22:41:25.383Z,1.40
2022-12-06T22:43:57.050Z,1.50
2022-12-06T22:46:26.532Z,1.50
2022-12-06T22:48:55.102Z,1.40
2022-12-06T22:51:24.425Z,1.40
2022-12-06T22:53:56.824Z,1.42
2022-12-06T22:56:24.494Z,1.60
2022-12-06T22:58:55.648Z,1.25
2022-12-06T23:01:24.334Z,1.38
2022-12-06T23:03:52.740Z,1.10
2022-12-06T23:06:21.789Z,1.40
2022-12-06T23:08:49.357Z,1.40
2022-12-06T23:11:19.002Z,1.60
2022-12-06T23:13:46.382Z,1.58
2022-12-06T23:16:15.599Z,1.40
2022-12-06T23:18:43.085Z,1.52
2022-12-06T23:21:18.820Z,1.38
2022-12-06T23:23:48.276Z,1.52
2022-12-06T23:26:17.621Z,1.30
2022-12-06T23:28:45.425Z,1.10
2022-12-06T23:31:17.875Z,1.50
2022-12-06T23:33:45.740Z,1.60
2022-12-06T23:36:22.082Z,1.30
2022-12-06T23:38:49.203Z,1.50
2022-12-06T23:41:19.202Z,1.40
2022-12-06T23:43:46.522Z,1.58
2022-12-06T23:46:20.603Z,1.60
2022-12-06T23:48:50.427Z,1.60
2022-12-06T23:51:20.146Z,1.55
2022-12-06T23:53:52.688Z,1.38
2022-12-06T23:56:21.386Z,1.50
2022-12-06T23:58:50.602Z,1.50
